Time;durP1;ratioP1;P1;durP2;ratioP2;P2;SDS_P1;SDS_P2;PMS_P1;PMS_P2;Temp;Humidity;BMP_temperature;BMP_pressure;BME280_temperature;BME280_humidity;BME280_pressure;Samples;Min_cycle;Max_cycle;Signal;HPM_P1;HPM_P2
2023/08/04 00:00:44;;;;;;;4.13;2.87;;;17.00;99.90;;;;;;5032886;28;20557;-82
2023/08/04 00:03:11;;;;;;;7.00;3.33;;;17.00;99.90;;;;;;5033482;28;20455;-82
2023/08/04 00:05:38;;;;;;;6.10;3.00;;;17.00;99.90;;;;;;5033832;28;20483;-82
2023/08/04 00:08:06;;;;;;;7.90;4.07;;;17.00;99.90;;;;;;5033734;28;20456;-82
2023/08/04 00:10:32;;;;;;;4.37;3.53;;;17.10;99.90;;;;;;5033793;28;20492;-81
2023/08/04 00:12:59;;;;;;;4.60;3.07;;;17.10;99.90;;;;;;5033509;28;20463;-82
2023/08/04 00:15:26;;;;;;;11.33;4.37;;;17.00;99.90;;;;;;5032888;28;20845;-83
2023/08/04 00:17:53;;;;;;;6.83;4.00;;;17.00;99.90;;;;;;5028038;28;20453;-82
2023/08/04 00:20:19;;;;;;;7.20;3.43;;;17.00;99.90;;;;;;5014041;28;20500;-84
2023/08/04 00:22:46;;;;;;;5.87;4.23;;;17.00;99.90;;;;;;5014113;28;20451;-83
2023/08/04 00:25:14;;;;;;;11.67;4.10;;;17.00;99.90;;;;;;5013948;28;20458;-84
2023/08/04 00:27:41;;;;;;;6.50;3.30;;;17.00;99.90;;;;;;5013930;28;20552;-80
2023/08/04 00:30:10;;;;;;;7.83;4.20;;;17.10;99.90;;;;;;5013868;28;20476;-84
2023/08/04 00:32:37;;;;;;;12.40;4.10;;;17.00;99.90;;;;;;5019706;28;20458;-82
2023/08/04 00:35:05;;;;;;;7.50;4.03;;;17.00;99.90;;;;;;5033869;28;20954;-82
2023/08/04 00:37:33;;;;;;;7.03;3.77;;;17.00;99.90;;;;;;5034337;28;20462;-82
2023/08/04 00:40:00;;;;;;;5.07;3.77;;;17.00;99.90;;;;;;5033612;28;20493;-83
2023/08/04 00:42:28;;;;;;;7.37;3.90;;;17.00;99.90;;;;;;5034119;28;20443;-83
2023/08/04 00:44:55;;;;;;;4.70;3.73;;;17.10;99.90;;;;;;5034454;28;20456;-83
2023/08/04 00:47:24;;;;;;;6.30;4.10;;;17.10;99.90;;;;;;5028719;28;20471;-84
2023/08/04 00:49:52;;;;;;;5.53;3.70;;;17.00;99.90;;;;;;5014819;28;21160;-83
2023/08/04 00:52:19;;;;;;;7.33;3.63;;;17.10;99.90;;;;;;5019150;28;20467;-84
2023/08/04 00:54:47;;;;;;;4.73;3.80;;;17.00;99.90;;;;;;5019177;28;20456;-82
2023/08/04 00:57:14;;;;;;;6.43;3.53;;;17.00;99.90;;;;;;5018786;28;20464;-83
2023/08/04 00:59:43;;;;;;;7.37;4.47;;;17.00;99.90;;;;;;5017569;28;20583;-83
2023/08/04 01:02:10;;;;;;;6.17;5.13;;;17.10;99.90;;;;;;5019210;28;20459;-82
2023/08/04 01:04:37;;;;;;;4.80;3.90;;;17.00;99.90;;;;;;5019418;28;20446;-84
2023/08/04 01:07:21;;;;;;;11.60;4.43;;;17.00;99.90;;;;;;5019497;28;20798;-81
2023/08/04 01:09:57;;;;;;;6.63;4.37;;;17.00;99.90;;;;;;5026802;28;20919;-83
2023/08/04 01:12:31;;;;;;;7.27;3.67;;;17.00;99.90;;;;;;5031855;28;20543;-84
2023/08/04 01:15:01;;;;;;;7.50;4.50;;;17.00;99.90;;;;;;5020646;28;20554;-84
2023/08/04 01:17:29;;;;;;;8.03;3.93;;;17.00;99.90;;;;;;5020922;28;20584;-84
2023/08/04 01:19:57;;;;;;;7.17;4.20;;;16.90;99.90;;;;;;5024437;28;20553;-83
2023/08/04 01:22:26;;;;;;;6.00;3.93;;;16.90;99.90;;;;;;5054573;28;20538;-81
2023/08/04 01:24:53;;;;;;;8.90;4.73;;;16.90;99.90;;;;;;5042284;28;20457;-82
2023/08/04 01:27:28;;;;;;;4.90;4.00;;;16.90;99.90;;;;;;5035705;28;20455;-84
2023/08/04 01:29:58;;;;;;;6.93;4.20;;;17.00;99.90;;;;;;5035548;28;20476;-83
2023/08/04 01:32:25;;;;;;;8.97;4.10;;;17.00;99.90;;;;;;5035292;28;20466;-83
2023/08/04 01:34:52;;;;;;;10.70;4.60;;;17.00;99.90;;;;;;5035580;28;20464;-82
2023/08/04 01:37:19;;;;;;;6.73;4.33;;;17.00;99.90;;;;;;5035407;28;20448;-85
2023/08/04 01:39:48;;;;;;;9.63;5.00;;;17.00;99.90;;;;;;5035348;28;20501;-83
2023/08/04 01:42:14;;;;;;;8.73;4.70;;;17.00;99.90;;;;;;5035370;28;20448;-82
2023/08/04 01:44:41;;;;;;;8.90;4.40;;;17.00;99.90;;;;;;5034509;28;20860;-82
2023/08/04 01:47:08;;;;;;;8.40;5.07;;;17.00;99.90;;;;;;5034897;28;20917;-81
2023/08/04 01:49:35;;;;;;;8.07;4.37;;;17.00;99.90;;;;;;5035670;28;20997;-83
2023/08/04 01:52:03;;;;;;;7.23;5.30;;;17.00;99.90;;;;;;5020467;28;20467;-81
2023/08/04 01:54:29;;;;;;;10.70;5.00;;;17.00;99.90;;;;;;5015647;28;20460;-83
2023/08/04 01:56:58;;;;;;;10.73;6.40;;;17.00;99.90;;;;;;5020463;28;20456;-81
2023/08/04 01:59:24;;;;;;;11.93;5.57;;;17.00;99.90;;;;;;5035229;28;20498;-80
2023/08/04 02:01:51;;;;;;;7.50;4.40;;;17.00;99.90;;;;;;5034324;28;20456;-81
2023/08/04 02:04:18;;;;;;;9.10;4.80;;;17.00;99.90;;;;;;5034766;28;20828;-81
2023/08/04 02:06:45;;;;;;;8.50;5.57;;;17.00;99.90;;;;;;5030886;28;20454;-80
2023/08/04 02:09:13;;;;;;;9.13;4.83;;;16.90;99.90;;;;;;5022324;28;20476;-82
2023/08/04 02:11:41;;;;;;;8.60;5.10;;;17.00;99.90;;;;;;5015089;28;20459;-81
2023/08/04 02:14:12;;;;;;;8.43;5.43;;;16.90;99.90;;;;;;5015975;28;20464;-81
2023/08/04 02:16:39;;;;;;;8.80;5.90;;;17.00;99.90;;;;;;5014909;28;20452;-82
2023/08/04 02:19:08;;;;;;;9.90;5.00;;;16.90;99.90;;;;;;5014895;28;20478;-82
2023/08/04 02:21:35;;;;;;;9.30;5.30;;;16.90;99.90;;;;;;5014664;28;20452;-82
2023/08/04 02:24:02;;;;;;;11.20;6.40;;;16.90;99.90;;;;;;5015120;28;20540;-82
2023/08/04 02:26:29;;;;;;;7.37;4.30;;;16.90;99.90;;;;;;5014703;28;20447;-83
2023/08/04 02:28:57;;;;;;;7.97;5.83;;;17.00;99.90;;;;;;5031650;28;20477;-82
2023/08/04 02:31:26;;;;;;;10.97;5.23;;;16.90;99.90;;;;;;5033660;28;21050;-82
2023/08/04 02:33:54;;;;;;;11.77;4.93;;;16.90;99.90;;;;;;5034704;28;20835;-82
2023/08/04 02:36:21;;;;;;;10.40;5.10;;;16.90;99.90;;;;;;5034250;28;20452;-80
2023/08/04 02:38:48;;;;;;;8.20;6.03;;;16.90;99.90;;;;;;5034375;28;20472;-80
2023/08/04 02:41:15;;;;;;;7.70;4.70;;;16.90;99.90;;;;;;5014937;28;20498;-82
2023/08/04 02:43:42;;;;;;;8.27;5.47;;;16.90;99.90;;;;;;5014853;28;20460;-81
2023/08/04 02:46:10;;;;;;;7.00;5.03;;;16.80;99.90;;;;;;5031627;28;20462;-82
2023/08/04 02:48:39;;;;;;;6.63;4.50;;;16.80;99.90;;;;;;5034455;28;20480;-81
2023/08/04 02:51:07;;;;;;;6.37;4.43;;;16.80;99.90;;;;;;5034510;28;20778;-81
2023/08/04 02:53:35;;;;;;;10.47;5.00;;;16.80;99.90;;;;;;5034756;28;20446;-83
2023/08/04 02:56:08;;;;;;;8.00;4.87;;;16.80;99.90;;;;;;5033265;28;20461;-82
2023/08/04 02:58:35;;;;;;;6.10;3.97;;;16.70;99.90;;;;;;5026622;28;20533;-81
2023/08/04 03:01:02;;;;;;;9.20;4.87;;;16.70;99.90;;;;;;5034050;28;20496;-82
2023/08/04 03:03:29;;;;;;;9.90;4.83;;;16.70;99.90;;;;;;5033811;28;20990;-81
2023/08/04 03:05:59;;;;;;;12.73;4.87;;;16.70;99.90;;;;;;5033845;28;20842;-82
2023/08/04 03:08:26;;;;;;;7.77;3.93;;;16.60;99.90;;;;;;5033560;28;20980;-82
2023/08/04 03:10:53;;;;;;;5.27;4.03;;;16.60;99.90;;;;;;5034245;28;20529;-82
2023/08/04 03:13:19;;;;;;;12.53;4.40;;;16.60;99.90;;;;;;5021031;28;20458;-84
2023/08/04 03:15:46;;;;;;;11.03;4.73;;;16.60;99.90;;;;;;5014021;28;20452;-83
2023/08/04 03:18:13;;;;;;;7.07;5.03;;;16.60;99.90;;;;;;5014002;28;20460;-83
2023/08/04 03:20:41;;;;;;;11.60;5.73;;;16.50;99.90;;;;;;5014284;28;20487;-81
2023/08/04 03:23:09;;;;;;;11.27;5.70;;;16.60;99.90;;;;;;5014048;28;20447;-84
2023/08/04 03:25:36;;;;;;;9.00;5.90;;;16.50;99.90;;;;;;5014065;28;20746;-84
2023/08/04 03:28:02;;;;;;;10.37;6.20;;;16.60;99.90;;;;;;5015453;28;20867;-81
2023/08/04 03:30:29;;;;;;;9.50;6.67;;;16.50;99.90;;;;;;5014334;28;20787;-82
2023/08/04 03:32:56;;;;;;;9.03;6.80;;;16.50;99.90;;;;;;5014881;28;20454;-82
2023/08/04 03:35:23;;;;;;;9.53;6.10;;;16.50;99.90;;;;;;5014540;28;20454;-83
2023/08/04 03:37:50;;;;;;;11.07;5.70;;;16.50;99.90;;;;;;5014786;28;20461;-84
2023/08/04 03:40:19;;;;;;;11.67;5.73;;;16.50;99.90;;;;;;5014632;28;20513;-81
2023/08/04 03:42:45;;;;;;;7.97;5.47;;;16.50;99.90;;;;;;5020642;28;20590;-83
2023/08/04 03:45:12;;;;;;;5.47;4.70;;;16.60;99.90;;;;;;5020691;28;20790;-81
2023/08/04 03:47:39;;;;;;;7.63;5.30;;;16.50;99.90;;;;;;5014641;28;20528;-80
2023/08/04 03:50:07;;;;;;;8.27;5.60;;;16.60;99.90;;;;;;5014800;28;20467;-80
2023/08/04 03:52:34;;;;;;;6.90;5.20;;;16.60;99.90;;;;;;5014037;28;20454;-81
2023/08/04 03:55:01;;;;;;;11.00;5.53;;;16.60;99.90;;;;;;5015245;28;21009;-80
2023/08/04 03:57:29;;;;;;;5.10;4.57;;;16.60;99.90;;;;;;5025652;28;20454;-80
2023/08/04 03:59:56;;;;;;;6.23;4.70;;;16.60;99.90;;;;;;5034351;28;20501;-81
2023/08/04 04:02:23;;;;;;;6.60;4.90;;;16.60;99.90;;;;;;5014074;28;20451;-81
2023/08/04 04:04:50;;;;;;;5.90;4.83;;;16.60;99.90;;;;;;5028743;28;20454;-82
2023/08/04 04:07:16;;;;;;;10.43;5.93;;;16.60;99.90;;;;;;5032888;28;20457;-82
2023/08/04 04:09:43;;;;;;;8.23;5.90;;;16.60;99.90;;;;;;5032984;28;20484;-82
2023/08/04 04:12:10;;;;;;;12.90;6.10;;;16.60;99.90;;;;;;5033117;28;20820;-81
2023/08/04 04:14:38;;;;;;;8.73;5.30;;;16.60;99.90;;;;;;5024707;28;20459;-81
2023/08/04 04:17:06;;;;;;;10.57;5.30;;;16.60;99.90;;;;;;5030037;28;20953;-82
2023/08/04 04:19:32;;;;;;;12.33;6.10;;;16.60;99.90;;;;;;5028518;28;20553;-81
2023/08/04 04:21:59;;;;;;;12.03;5.67;;;16.60;99.90;;;;;;5014302;28;20852;-83
2023/08/04 04:24:26;;;;;;;7.43;5.13;;;16.60;99.90;;;;;;5015787;28;20460;-83
2023/08/04 04:26:53;;;;;;;11.27;6.30;;;16.60;99.90;;;;;;5014873;28;20455;-82
2023/08/04 04:29:19;;;;;;;10.80;5.80;;;16.60;99.90;;;;;;5016053;28;20867;-83
2023/08/04 04:31:48;;;;;;;9.20;5.93;;;16.60;99.90;;;;;;5016001;28;20452;-83
2023/08/04 04:34:14;;;;;;;10.73;6.03;;;16.60;99.90;;;;;;5019763;28;20467;-83
2023/08/04 04:36:41;;;;;;;10.00;6.00;;;16.70;99.90;;;;;;5033384;28;20455;-83
2023/08/04 04:39:08;;;;;;;9.50;6.00;;;16.70;99.90;;;;;;5034874;28;20475;-83
2023/08/04 04:41:35;;;;;;;7.57;5.83;;;16.70;99.90;;;;;;5044165;28;20480;-80
2023/08/04 04:44:02;;;;;;;13.23;6.67;;;16.70;99.90;;;;;;5043714;28;20456;-80
2023/08/04 04:46:29;;;;;;;10.53;5.87;;;16.70;99.90;;;;;;5049296;28;20461;-81
2023/08/04 04:48:57;;;;;;;8.13;5.60;;;16.70;99.90;;;;;;5032299;28;20499;-80
2023/08/04 04:51:24;;;;;;;6.73;4.80;;;16.70;99.90;;;;;;5032376;28;20955;-81
2023/08/04 04:53:51;;;;;;;11.03;6.43;;;16.70;99.90;;;;;;5016336;28;20457;-82
2023/08/04 04:56:18;;;;;;;13.97;7.10;;;16.70;99.90;;;;;;5016047;28;20476;-81
2023/08/04 04:58:44;;;;;;;9.17;5.93;;;16.80;99.90;;;;;;5024078;28;20495;-82
2023/08/04 05:01:11;;;;;;;10.70;5.70;;;16.80;99.90;;;;;;5076207;22;20495;-81
2023/08/04 05:03:38;;;;;;;8.30;5.13;;;16.80;99.90;;;;;;5076159;28;20449;-86
2023/08/04 05:06:07;;;;;;;9.33;5.00;;;16.80;99.90;;;;;;5050176;28;20465;-80
2023/08/04 05:08:33;;;;;;;7.60;5.90;;;16.80;99.90;;;;;;5066660;28;20480;-83
2023/08/04 05:11:00;;;;;;;10.40;6.30;;;16.90;99.90;;;;;;5078462;28;20488;-82
2023/08/04 05:13:27;;;;;;;10.30;6.10;;;16.80;99.90;;;;;;5071753;28;20537;-81
2023/08/04 05:15:54;;;;;;;7.70;5.43;;;16.90;99.90;;;;;;5064777;28;21029;-84
2023/08/04 05:18:21;;;;;;;10.00;6.10;;;16.90;99.90;;;;;;5067504;28;21069;-84
2023/08/04 05:20:50;;;;;;;7.30;5.40;;;17.00;99.90;;;;;;5056635;28;20490;-81
2023/08/04 05:23:19;;;;;;;9.00;6.50;;;17.00;99.90;;;;;;5074284;28;20450;-83
2023/08/04 05:25:45;;;;;;;8.93;5.60;;;17.00;99.90;;;;;;5070533;28;20547;-80
2023/08/04 05:28:24;;;;;;;10.53;5.67;;;17.00;99.90;;;;;;5064389;28;20459;-82
2023/08/04 05:30:55;;;;;;;9.47;6.50;;;17.00;99.90;;;;;;5074159;28;20465;-81
2023/08/04 05:33:22;;;;;;;13.13;6.37;;;17.00;99.90;;;;;;5074086;28;20942;-83
2023/08/04 05:35:49;;;;;;;11.90;7.00;;;17.10;99.90;;;;;;5087921;28;20457;-83
2023/08/04 05:38:15;;;;;;;8.70;6.10;;;17.10;99.90;;;;;;5087419;28;21214;-81
2023/08/04 05:40:45;;;;;;;11.40;6.80;;;17.10;99.90;;;;;;5081010;28;20489;-83
2023/08/04 05:43:13;;;;;;;9.40;5.93;;;17.10;99.90;;;;;;5090965;28;20544;-84
2023/08/04 05:45:42;;;;;;;8.47;6.27;;;17.00;99.90;;;;;;5084929;28;20488;-81
2023/08/04 05:48:09;;;;;;;15.30;7.00;;;17.10;99.90;;;;;;5082889;28;20460;-82
2023/08/04 05:50:36;;;;;;;11.07;6.20;;;17.10;99.90;;;;;;5082842;28;20482;-82
2023/08/04 05:53:03;;;;;;;10.43;6.90;;;17.10;99.90;;;;;;5083669;28;20450;-82
2023/08/04 05:55:30;;;;;;;12.90;6.90;;;17.20;99.90;;;;;;5081314;28;20461;-82
2023/08/04 05:57:58;;;;;;;8.30;6.10;;;17.20;99.90;;;;;;5090928;28;21023;-81
2023/08/04 06:00:25;;;;;;;8.57;6.23;;;17.20;99.90;;;;;;5090838;28;20569;-83
2023/08/04 06:02:52;;;;;;;11.27;6.50;;;17.30;99.90;;;;;;5081675;28;20450;-85
2023/08/04 06:05:20;;;;;;;9.40;6.20;;;17.30;99.90;;;;;;5076688;28;20447;-82
2023/08/04 06:07:48;;;;;;;21.80;8.40;;;17.30;99.90;;;;;;5078860;28;20485;-81
2023/08/04 06:10:18;;;;;;;15.67;7.03;;;17.40;99.90;;;;;;5079832;28;20559;-83
2023/08/04 06:12:44;;;;;;;11.93;7.53;;;17.40;99.90;;;;;;5087643;28;20459;-81
2023/08/04 06:15:13;;;;;;;17.23;6.87;;;17.40;99.90;;;;;;5073753;28;20443;-81
2023/08/04 06:17:39;;;;;;;10.10;6.90;;;17.40;99.90;;;;;;5079324;28;20557;-82
2023/08/04 06:20:08;;;;;;;11.53;7.53;;;17.50;99.90;;;;;;5089595;28;20561;-81
2023/08/04 06:22:35;;;;;;;14.57;7.00;;;17.60;99.90;;;;;;5090927;28;20495;-81
2023/08/04 06:25:02;;;;;;;13.37;8.00;;;17.60;99.90;;;;;;5085852;28;20439;-82
2023/08/04 06:27:28;;;;;;;13.70;7.23;;;17.70;99.90;;;;;;5078664;28;20457;-81
2023/08/04 06:30:02;;;;;;;11.70;7.60;;;17.70;99.90;;;;;;5091809;28;20565;-82
2023/08/04 06:32:30;;;;;;;15.80;8.03;;;17.70;99.90;;;;;;5080535;28;20458;-82
2023/08/04 06:34:57;;;;;;;8.23;7.17;;;17.80;99.90;;;;;;5077876;28;20470;-82
2023/08/04 06:37:24;;;;;;;16.80;7.73;;;17.80;99.90;;;;;;5075989;28;20468;-81
2023/08/04 06:39:52;;;;;;;12.40;8.43;;;17.80;99.90;;;;;;5074402;28;20940;-83
2023/08/04 06:42:19;;;;;;;13.20;6.67;;;17.80;99.90;;;;;;5080099;28;20569;-82
2023/08/04 06:44:46;;;;;;;10.57;8.17;;;17.80;99.90;;;;;;5079500;28;20873;-80
2023/08/04 06:47:13;;;;;;;15.47;8.90;;;17.90;99.90;;;;;;5075112;28;20541;-80
2023/08/04 06:49:46;;;;;;;12.27;7.67;;;17.80;99.90;;;;;;5076248;28;20467;-80
2023/08/04 06:52:13;;;;;;;13.73;8.43;;;17.90;99.90;;;;;;5075126;28;20525;-82
2023/08/04 06:54:40;;;;;;;12.80;7.40;;;17.90;99.90;;;;;;5086794;28;20545;-81
2023/08/04 06:57:07;;;;;;;14.73;8.67;;;18.00;99.90;;;;;;5072604;28;20473;-82
2023/08/04 06:59:34;;;;;;;11.20;8.20;;;18.00;99.90;;;;;;5073369;28;20474;-81
2023/08/04 07:02:01;;;;;;;11.17;7.83;;;18.10;99.90;;;;;;5081212;28;20477;-81
2023/08/04 07:04:28;;;;;;;14.37;7.67;;;18.10;99.90;;;;;;5075951;28;20601;-81
2023/08/04 07:06:57;;;;;;;9.80;6.63;;;18.10;99.90;;;;;;5081125;28;20546;-81
2023/08/04 07:09:25;;;;;;;14.47;7.77;;;18.20;99.90;;;;;;5094032;28;20482;-82
2023/08/04 07:11:53;;;;;;;11.03;6.03;;;18.20;99.90;;;;;;5086933;28;20451;-83
2023/08/04 07:14:19;;;;;;;9.93;7.47;;;18.30;99.90;;;;;;5080101;28;20469;-81
2023/08/04 07:16:47;;;;;;;8.80;6.10;;;18.40;99.90;;;;;;5082382;28;20539;-83
2023/08/04 07:19:14;;;;;;;10.70;6.47;;;18.50;99.90;;;;;;5087421;28;20455;-82
2023/08/04 07:21:40;;;;;;;14.07;6.17;;;18.50;99.90;;;;;;5087942;28;20479;-81
2023/08/04 07:24:09;;;;;;;8.67;5.70;;;18.60;99.90;;;;;;5086309;28;20837;-82
2023/08/04 07:26:36;;;;;;;9.97;5.60;;;18.70;99.90;;;;;;5090698;28;20451;-80
2023/08/04 07:29:03;;;;;;;10.63;6.50;;;18.70;99.90;;;;;;5087800;28;20453;-81
2023/08/04 07:31:31;;;;;;;8.37;5.13;;;18.70;99.90;;;;;;5088878;28;20917;-80
2023/08/04 07:33:58;;;;;;;7.20;4.90;;;18.80;99.90;;;;;;5099780;28;20462;-81
2023/08/04 07:36:25;;;;;;;8.43;5.10;;;18.80;99.90;;;;;;5080192;28;20983;-80
2023/08/04 07:38:52;;;;;;;9.97;5.70;;;18.90;99.90;;;;;;5084423;28;20529;-79
2023/08/04 07:41:21;;;;;;;10.93;5.40;;;18.90;99.90;;;;;;5089997;28;20481;-80
2023/08/04 07:43:48;;;;;;;7.73;4.80;;;18.90;99.90;;;;;;5084147;28;20502;-80
2023/08/04 07:46:23;;;;;;;9.07;5.43;;;18.90;99.90;;;;;;5087176;28;20554;-82
2023/08/04 07:48:50;;;;;;;5.70;5.07;;;18.90;99.90;;;;;;5095279;28;20481;-81
2023/08/04 07:51:17;;;;;;;11.53;5.60;;;18.90;99.90;;;;;;5082157;28;20930;-78
2023/08/04 07:53:44;;;;;;;10.83;5.47;;;18.80;99.90;;;;;;5076548;28;20861;-81
2023/08/04 07:56:11;;;;;;;8.80;5.13;;;18.80;99.90;;;;;;5075631;28;20950;-81
2023/08/04 07:58:40;;;;;;;9.50;5.53;;;18.90;99.90;;;;;;5085048;28;20451;-80
2023/08/04 08:01:06;;;;;;;9.77;5.17;;;18.90;99.90;;;;;;5083091;28;20495;-80
2023/08/04 08:03:34;;;;;;;6.27;4.90;;;18.90;99.90;;;;;;5080083;28;20545;-81
2023/08/04 08:06:01;;;;;;;7.47;4.73;;;18.90;99.90;;;;;;5083816;28;20977;-81
2023/08/04 08:08:28;;;;;;;11.90;4.83;;;18.90;99.90;;;;;;5088172;28;20938;-82
2023/08/04 08:10:55;;;;;;;8.50;4.70;;;18.90;99.90;;;;;;5079492;28;20482;-82
2023/08/04 08:13:22;;;;;;;10.80;4.77;;;19.00;99.90;;;;;;5084530;28;20451;-81
2023/08/04 08:15:51;;;;;;;6.93;5.47;;;19.00;99.90;;;;;;5084147;28;20442;-80
2023/08/04 08:18:17;;;;;;;11.37;5.53;;;19.10;99.90;;;;;;5075313;28;20554;-80
2023/08/04 08:20:44;;;;;;;5.97;4.03;;;19.20;99.90;;;;;;5077485;28;20546;-82
2023/08/04 08:23:12;;;;;;;5.50;3.97;;;19.40;99.90;;;;;;5075068;28;20494;-81
2023/08/04 08:25:41;;;;;;;6.90;3.87;;;19.50;99.90;;;;;;5085265;28;20462;-82
2023/08/04 08:28:07;;;;;;;8.20;4.00;;;19.60;99.90;;;;;;5081762;28;20951;-83
2023/08/04 08:30:34;;;;;;;9.10;4.20;;;19.60;99.90;;;;;;5080823;28;20481;-81
2023/08/04 08:33:02;;;;;;;7.87;4.60;;;19.70;99.90;;;;;;5086322;28;21185;-83
2023/08/04 08:35:29;;;;;;;5.97;4.60;;;19.70;99.90;;;;;;5088447;28;20451;-84
2023/08/04 08:37:56;;;;;;;6.10;3.97;;;19.80;99.90;;;;;;5092937;28;21004;-82
2023/08/04 08:40:25;;;;;;;8.97;5.00;;;19.80;99.90;;;;;;5085362;28;20574;-81
2023/08/04 08:42:52;;;;;;;5.60;4.50;;;19.80;99.90;;;;;;5087386;28;20489;-84
2023/08/04 08:45:19;;;;;;;8.57;5.93;;;19.90;99.90;;;;;;5084737;28;20447;-81
2023/08/04 08:47:47;;;;;;;6.77;5.20;;;20.00;99.90;;;;;;5083808;28;20529;-84
2023/08/04 08:50:17;;;;;;;7.70;5.37;;;20.10;99.90;;;;;;5078407;28;20458;-81
2023/08/04 08:52:49;;;;;;;7.30;5.50;;;20.10;99.90;;;;;;5083669;28;20443;-83
2023/08/04 08:55:17;;;;;;;5.50;5.00;;;20.10;99.90;;;;;;5072826;28;20451;-83
2023/08/04 08:57:44;;;;;;;9.73;5.23;;;20.20;99.90;;;;;;5076125;28;20462;-82
2023/08/04 09:00:12;;;;;;;7.10;5.00;;;20.30;99.90;;;;;;5073862;28;20517;-83
2023/08/04 09:02:39;;;;;;;8.67;4.90;;;20.30;99.90;;;;;;5080074;28;20573;-82
2023/08/04 09:05:06;;;;;;;5.17;4.20;;;20.30;99.90;;;;;;5076593;28;21010;-80
2023/08/04 09:07:34;;;;;;;6.03;4.27;;;20.30;62.90;;;;;;5080795;28;20451;-82
2023/08/04 09:10:02;;;;;;;5.53;4.03;;;20.30;99.90;;;;;;5072066;28;20473;-83
2023/08/04 09:12:32;;;;;;;8.10;4.40;;;20.40;91.50;;;;;;5085204;28;20451;-84
2023/08/04 09:14:58;;;;;;;8.60;4.80;;;20.40;99.90;;;;;;5081536;28;20449;-83
2023/08/04 09:17:33;;;;;;;7.17;4.60;;;20.30;99.90;;;;;;5084272;28;20866;-82
2023/08/04 09:20:02;;;;;;;7.83;5.00;;;20.40;99.90;;;;;;5084287;28;20481;-82
2023/08/04 09:22:31;;;;;;;7.00;4.20;;;20.40;99.90;;;;;;5079744;28;20922;-80
2023/08/04 09:25:01;;;;;;;6.37;4.60;;;20.40;99.90;;;;;;5084898;28;20454;-81
2023/08/04 09:27:34;;;;;;;5.13;4.53;;;20.40;99.90;;;;;;5079458;28;20442;-80
2023/08/04 09:30:03;;;;;;;7.60;4.40;;;20.50;99.90;;;;;;5075433;28;20474;-80
2023/08/04 09:32:30;;;;;;;15.13;4.30;;;20.50;99.90;;;;;;5082674;28;20454;-82
2023/08/04 09:35:02;;;;;;;5.53;4.53;;;20.50;99.90;;;;;;5080869;28;20452;-81
2023/08/04 09:37:31;;;;;;;6.63;3.50;;;20.50;99.90;;;;;;5083840;28;20817;-81
2023/08/04 09:39:59;;;;;;;5.10;3.40;;;20.50;94.90;;;;;;5080613;28;21020;-83
2023/08/04 09:42:26;;;;;;;5.10;3.90;;;20.50;99.90;;;;;;5070643;28;20510;-84
2023/08/04 09:44:54;;;;;;;3.23;2.50;;;20.60;99.90;;;;;;5079473;28;20524;-84
2023/08/04 09:47:25;;;;;;;3.10;2.63;;;20.60;13.40;;;;;;5078618;28;21016;-82
2023/08/04 09:49:53;;;;;;;4.97;3.30;;;20.60;83.20;;;;;;5087556;28;20466;-82
2023/08/04 09:52:21;;;;;;;4.80;3.10;;;20.70;99.90;;;;;;5078321;28;20458;-81
2023/08/04 09:54:48;;;;;;;4.53;2.60;;;20.80;99.90;;;;;;5077157;28;20518;-83
2023/08/04 09:57:16;;;;;;;4.33;3.30;;;20.90;99.90;;;;;;5083068;28;20439;-83
2023/08/04 09:59:43;;;;;;;4.50;2.70;;;21.00;99.90;;;;;;5079564;28;20929;-83
2023/08/04 10:02:12;;;;;;;3.40;2.00;;;21.00;16.00;;;;;;5084978;28;20546;-82
2023/08/04 10:04:40;;;;;;;2.97;2.23;;;21.00;33.40;;;;;;5096009;28;20486;-82
2023/08/04 10:07:08;;;;;;;5.00;2.37;;;21.20;92.90;;;;;;5090268;28;20459;-81
2023/08/04 10:09:35;;;;;;;4.33;2.70;;;21.20;99.90;;;;;;5093478;28;20562;-84
2023/08/04 10:12:03;;;;;;;5.00;2.40;;;21.20;94.00;;;;;;5084115;28;20482;-83
2023/08/04 10:14:31;;;;;;;4.80;2.47;;;21.30;1.00;;;;;;5088172;28;20451;-85
2023/08/04 10:16:58;;;;;;;2.97;2.20;;;21.40;62.30;;;;;;5079993;28;20530;-83
2023/08/04 10:19:25;;;;;;;4.10;2.20;;;21.40;1.00;;;;;;5095409;28;20533;-83
2023/08/04 10:21:52;;;;;;;3.13;2.40;;;21.70;1.00;;;;;;5079868;28;20986;-82
2023/08/04 10:24:20;;;;;;;3.60;2.40;;;22.10;99.90;;;;;;5079503;28;20443;-82
2023/08/04 10:26:49;;;;;;;4.13;2.10;;;22.50;96.30;;;;;;5076149;28;20467;-82
2023/08/04 10:29:17;;;;;;;3.97;2.33;;;22.60;1.00;;;;;;5076231;28;20951;-80
2023/08/04 10:31:47;;;;;;;3.73;2.40;;;22.60;1.00;;;;;;5080175;28;20451;-82
2023/08/04 10:34:24;;;;;;;2.90;2.20;;;22.40;1.00;;;;;;5078549;28;20443;-82
2023/08/04 10:37:05;;;;;;;5.40;2.70;;;22.30;1.00;;;;;;5080856;28;20438;-82
2023/08/04 10:39:33;;;;;;;2.80;2.17;;;22.60;1.00;;;;;;5076772;28;20947;-83
2023/08/04 10:42:01;;;;;;;2.87;1.90;;;22.90;1.00;;;;;;5076967;28;20526;-83
2023/08/04 10:44:29;;;;;;;2.30;1.50;;;22.90;99.90;;;;;;5076441;28;20448;-84
2023/08/04 10:47:04;;;;;;;2.60;1.80;;;23.00;99.90;;;;;;5078821;28;20450;-83
2023/08/04 10:49:31;;;;;;;2.27;1.90;;;23.20;1.00;;;;;;5079418;28;20447;-84
2023/08/04 10:51:58;;;;;;;3.03;1.80;;;23.00;1.00;;;;;;5078636;28;20453;-83
2023/08/04 10:54:25;;;;;;;2.63;1.70;;;22.80;1.00;;;;;;5078354;28;20455;-85
2023/08/04 10:56:52;;;;;;;2.70;1.53;;;22.70;1.00;;;;;;5077936;28;20466;-82
2023/08/04 10:59:19;;;;;;;2.73;1.60;;;22.30;75.50;;;;;;5078108;28;20461;-83
2023/08/04 11:01:47;;;;;;;5.23;2.20;;;22.20;1.00;;;;;;5070374;22;20523;-80
2023/08/04 11:04:15;;;;;;;4.80;1.47;;;22.10;1.00;;;;;;5049164;28;20455;-81
2023/08/04 11:06:42;;;;;;;3.03;1.70;;;22.00;94.70;;;;;;5037472;28;20461;-80
2023/08/04 11:09:10;;;;;;;3.23;1.50;;;22.00;1.00;;;;;;5030346;28;20535;-81
2023/08/04 11:11:37;;;;;;;2.00;1.30;;;22.00;1.00;;;;;;5039342;28;20468;-81
2023/08/04 11:14:07;;;;;;;3.20;2.10;;;22.00;1.00;;;;;;5039416;28;20937;-82
2023/08/04 11:16:36;;;;;;;2.63;1.43;;;22.60;99.90;;;;;;5033014;28;20454;-80
2023/08/04 11:19:04;;;;;;;1.90;1.40;;;23.10;1.00;;;;;;5037121;28;20464;-82
2023/08/04 11:21:32;;;;;;;4.27;1.67;;;23.60;1.00;;;;;;5038013;28;20561;-81
2023/08/04 11:23:59;;;;;;;3.20;1.70;;;23.90;1.00;;;;;;5040571;28;20480;-79
2023/08/04 11:26:28;;;;;;;4.70;1.50;;;24.00;99.90;;;;;;5041116;28;20903;-81
2023/08/04 11:28:57;;;;;;;2.63;1.30;;;24.00;99.90;;;;;;5044013;28;20516;-79
2023/08/04 11:31:24;;;;;;;3.67;1.57;;;23.90;99.90;;;;;;5038917;28;20461;-82
2023/08/04 11:33:52;;;;;;;2.20;1.40;;;23.90;1.00;;;;;;5034768;28;20540;-80
2023/08/04 11:36:19;;;;;;;2.40;1.33;;;24.10;1.00;;;;;;5029599;28;20464;-81
2023/08/04 11:38:47;;;;;;;3.77;1.83;;;24.10;99.90;;;;;;5032888;28;20457;-80
2023/08/04 11:41:14;;;;;;;3.30;1.23;;;24.10;1.00;;;;;;5027927;28;20468;-81
2023/08/04 11:43:41;;;;;;;5.50;1.33;;;24.30;99.90;;;;;;5028733;28;20480;-81
2023/08/04 11:46:09;;;;;;;2.20;1.20;;;24.10;41.70;;;;;;5027923;28;20836;-80
2023/08/04 11:48:36;;;;;;;1.87;1.30;;;23.70;99.90;;;;;;5029620;28;20544;-81
2023/08/04 11:51:06;;;;;;;3.20;1.47;;;23.50;8.60;;;;;;5031067;28;20552;-82
2023/08/04 11:53:33;;;;;;;2.97;1.40;;;23.10;53.00;;;;;;5028950;28;20976;-81
2023/08/04 11:56:02;;;;;;;2.33;1.50;;;22.90;99.90;;;;;;5031894;28;20460;-80
2023/08/04 11:58:37;;;;;;;3.00;1.40;;;22.80;99.90;;;;;;5034627;28;20444;-80
2023/08/04 12:01:04;;;;;;;4.50;1.53;;;22.70;99.90;;;;;;5034543;28;20871;-80
2023/08/04 12:03:45;;;;;;;4.00;2.00;;;22.70;99.90;;;;;;5034031;28;21004;-82
2023/08/04 12:06:15;;;;;;;5.07;1.27;;;23.00;1.00;;;;;;5031644;28;20477;-80
2023/08/04 12:08:48;;;;;;;4.23;1.57;;;23.70;1.40;;;;;;5033154;28;20452;-81
2023/08/04 12:11:17;;;;;;;2.40;1.77;;;24.50;99.90;;;;;;5034092;28;20468;-80
2023/08/04 12:13:44;;;;;;;3.67;1.77;;;25.20;99.90;;;;;;5033658;28;20453;-81
2023/08/04 12:16:13;;;;;;;3.87;1.47;;;25.80;99.90;;;;;;5033586;28;20847;-81
2023/08/04 12:18:41;;;;;;;2.30;1.00;;;26.30;1.00;;;;;;5034448;28;20451;-81
2023/08/04 12:21:10;;;;;;;2.43;1.43;;;26.40;99.90;;;;;;5035467;28;20480;-81
2023/08/04 12:23:37;;;;;;;2.97;1.50;;;26.00;99.90;;;;;;5034077;28;21029;-80
2023/08/04 12:26:04;;;;;;;2.13;1.10;;;25.60;22.60;;;;;;5034206;28;20457;-80
2023/08/04 12:28:32;;;;;;;2.20;1.30;;;25.20;99.90;;;;;;5034434;28;20457;-81
2023/08/04 12:30:59;;;;;;;4.43;1.50;;;25.50;1.00;;;;;;5035869;28;20484;-82
2023/08/04 12:33:26;;;;;;;3.33;1.30;;;26.10;90.10;;;;;;5036470;28;20460;-82
2023/08/04 12:35:52;;;;;;;2.90;1.53;;;26.40;1.00;;;;;;5035852;28;20456;-81
2023/08/04 12:38:19;;;;;;;2.30;1.23;;;26.20;1.00;;;;;;5036199;28;20452;-81
2023/08/04 12:40:48;;;;;;;5.40;1.77;;;25.90;99.90;;;;;;5036313;28;20472;-80
2023/08/04 12:43:15;;;;;;;3.37;2.20;;;25.30;99.90;;;;;;5036508;28;21015;-81
2023/08/04 12:45:43;;;;;;;2.97;1.80;;;25.00;99.90;;;;;;5036064;28;20475;-81
2023/08/04 12:48:10;;;;;;;2.70;1.77;;;25.10;99.90;;;;;;5039080;28;20452;-81